KILE/ILE METAR and TAF weather

Enter ICAO airport designator
Station Type Date Time Source
KILE METAR 2021/07/29 08:56 UTC NOAA

KILE 290856Z AUTO 18003KT 10SM CLR 25/23 A3003 RMK AO2 SLP156 T02500228 56004


Station Type Date Time Source
KILE Decoded METAR 2021/07/29 08:56 UTC NOAA

Killeen, Skylark Field Airport, TX, United States (KILE) 31-05N 097-41W
Jul 29, 2021 - 04:56 AM EDT / 2021.07.29 0856 UTC
Wind: from the S (180 degrees) at 3 MPH (3 KT):0
Visibility: 10 mile(s):0
Sky conditions: clear
Temperature: 77.0 F (25.0 C)
Dew Point: 73.0 F (22.8 C)
Relative Humidity: 87%
Pressure (altimeter): 30.03 in. Hg (1016 hPa)
Pressure tendency: 0.01 inches (0.4 hPa) lower than three hours ago
ob: KILE 290856Z AUTO 18003KT 10SM CLR 25/23 A3003 RMK AO2 SLP156 T02500228 56004
cycle: 9

Station Type Date Time Source
KILE TAF UTC NOAA

Error!

Example: see airport list